sensor_id;sensor_type;location;lat;lon;timestamp;P1;durP1;ratioP1;P2;durP2;ratioP2
63690;SDS011;49837;57.280;27.070;2022-08-14T00:00:36;12.8;;;2.8;;
63690;SDS011;49837;57.280;27.070;2022-08-14T00:01:36;13.6;;;3.5;;
63690;SDS011;49837;57.280;27.070;2022-08-14T00:02:37;15.5;;;2.7;;
63690;SDS011;49837;57.280;27.070;2022-08-14T00:03:37;10.6;;;2.4;;
63690;SDS011;49837;57.280;27.070;2022-08-14T00:04:38;8.8;;;2.6;;
63690;SDS011;49837;57.280;27.070;2022-08-14T00:05:41;12.8;;;2.7;;
63690;SDS011;49837;57.280;27.070;2022-08-14T00:06:41;10.3;;;2.5;;
63690;SDS011;49837;57.280;27.070;2022-08-14T00:07:43;12.9;;;2.6;;
63690;SDS011;49837;57.280;27.070;2022-08-14T00:08:43;10.0;;;2.7;;
63690;SDS011;49837;57.280;27.070;2022-08-14T00:09:44;11.1;;;2.5;;
63690;SDS011;49837;57.280;27.070;2022-08-14T00:10:46;13.8;;;2.6;;
63690;SDS011;49837;57.280;27.070;2022-08-14T00:11:47;10.9;;;2.7;;
63690;SDS011;49837;57.280;27.070;2022-08-14T00:12:49;14.9;;;2.2;;
63690;SDS011;49837;57.280;27.070;2022-08-14T00:13:52;13.7;;;2.5;;
63690;SDS011;49837;57.280;27.070;2022-08-14T00:14:53;13.5;;;2.7;;
63690;SDS011;49837;57.280;27.070;2022-08-14T00:15:55;11.6;;;2.7;;
63690;SDS011;49837;57.280;27.070;2022-08-14T00:16:55;10.8;;;2.5;;
63690;SDS011;49837;57.280;27.070;2022-08-14T00:17:55;9.3;;;2.6;;
63690;SDS011;49837;57.280;27.070;2022-08-14T00:18:56;13.7;;;2.5;;
63690;SDS011;49837;57.280;27.070;2022-08-14T00:19:58;7.6;;;2.0;;
63690;SDS011;49837;57.280;27.070;2022-08-14T00:20:59;12.3;;;2.6;;
63690;SDS011;49837;57.280;27.070;2022-08-14T00:21:59;7.8;;;2.2;;
63690;SDS011;49837;57.280;27.070;2022-08-14T00:23:00;12.3;;;2.4;;
63690;SDS011;49837;57.280;27.070;2022-08-14T00:24:03;10.4;;;2.1;;
63690;SDS011;49837;57.280;27.070;2022-08-14T00:25:05;8.2;;;2.4;;
63690;SDS011;49837;57.280;27.070;2022-08-14T00:26:05;11.2;;;2.2;;
63690;SDS011;49837;57.280;27.070;2022-08-14T00:27:07;8.0;;;2.1;;
63690;SDS011;49837;57.280;27.070;2022-08-14T00:28:08;7.7;;;2.4;;
63690;SDS011;49837;57.280;27.070;2022-08-14T00:29:11;9.6;;;2.4;;
63690;SDS011;49837;57.280;27.070;2022-08-14T00:30:12;10.1;;;2.6;;
63690;SDS011;49837;57.280;27.070;2022-08-14T00:31:13;8.2;;;2.2;;
63690;SDS011;49837;57.280;27.070;2022-08-14T00:32:13;6.0;;;2.0;;
63690;SDS011;49837;57.280;27.070;2022-08-14T00:33:17;9.8;;;2.3;;
63690;SDS011;49837;57.280;27.070;2022-08-14T00:34:17;9.1;;;2.3;;
63690;SDS011;49837;57.280;27.070;2022-08-14T00:35:17;9.0;;;2.1;;
63690;SDS011;49837;57.280;27.070;2022-08-14T00:36:21;8.0;;;2.3;;
63690;SDS011;49837;57.280;27.070;2022-08-14T00:37:19;7.5;;;2.3;;
63690;SDS011;49837;57.280;27.070;2022-08-14T00:38:20;10.3;;;2.3;;
63690;SDS011;49837;57.280;27.070;2022-08-14T00:39:21;8.7;;;2.8;;
63690;SDS011;49837;57.280;27.070;2022-08-14T00:40:21;9.8;;;2.4;;
63690;SDS011;49837;57.280;27.070;2022-08-14T00:41:28;11.6;;;2.5;;
63690;SDS011;49837;57.280;27.070;2022-08-14T00:42:29;8.8;;;2.4;;
63690;SDS011;49837;57.280;27.070;2022-08-14T00:43:32;8.0;;;2.2;;
63690;SDS011;49837;57.280;27.070;2022-08-14T00:44:32;11.5;;;2.6;;
63690;SDS011;49837;57.280;27.070;2022-08-14T00:45:32;9.0;;;2.3;;
63690;SDS011;49837;57.280;27.070;2022-08-14T00:46:33;8.0;;;2.3;;
63690;SDS011;49837;57.280;27.070;2022-08-14T00:47:33;8.0;;;2.1;;
63690;SDS011;49837;57.280;27.070;2022-08-14T00:48:34;7.0;;;2.0;;
63690;SDS011;49837;57.280;27.070;2022-08-14T00:49:34;4.7;;;1.7;;
63690;SDS011;49837;57.280;27.070;2022-08-14T00:50:38;7.1;;;1.9;;
63690;SDS011;49837;57.280;27.070;2022-08-14T00:51:39;7.1;;;1.8;;
63690;SDS011;49837;57.280;27.070;2022-08-14T00:52:39;5.7;;;1.7;;
63690;SDS011;49837;57.280;27.070;2022-08-14T00:53:40;4.3;;;1.7;;
63690;SDS011;49837;57.280;27.070;2022-08-14T00:54:40;5.1;;;1.7;;
63690;SDS011;49837;57.280;27.070;2022-08-14T00:55:41;5.0;;;1.9;;
63690;SDS011;49837;57.280;27.070;2022-08-14T00:56:41;4.4;;;1.4;;
63690;SDS011;49837;57.280;27.070;2022-08-14T00:57:42;6.4;;;1.8;;
63690;SDS011;49837;57.280;27.070;2022-08-14T00:58:42;8.2;;;2.2;;
63690;SDS011;49837;57.280;27.070;2022-08-14T00:59:44;4.4;;;1.8;;
63690;SDS011;49837;57.280;27.070;2022-08-14T01:00:44;4.5;;;1.8;;
63690;SDS011;49837;57.280;27.070;2022-08-14T01:01:48;9.3;;;2.3;;
63690;SDS011;49837;57.280;27.070;2022-08-14T01:02:49;7.2;;;2.3;;
63690;SDS011;49837;57.280;27.070;2022-08-14T01:03:49;6.8;;;1.7;;
63690;SDS011;49837;57.280;27.070;2022-08-14T01:04:51;6.9;;;1.9;;
63690;SDS011;49837;57.280;27.070;2022-08-14T01:05:54;11.8;;;2.5;;
63690;SDS011;49837;57.280;27.070;2022-08-14T01:06:54;7.9;;;2.0;;
63690;SDS011;49837;57.280;27.070;2022-08-14T01:07:54;6.2;;;2.1;;
63690;SDS011;49837;57.280;27.070;2022-08-14T01:08:55;13.7;;;2.8;;
63690;SDS011;49837;57.280;27.070;2022-08-14T01:09:57;7.7;;;2.1;;
63690;SDS011;49837;57.280;27.070;2022-08-14T01:10:56;22.7;;;2.9;;
63690;SDS011;49837;57.280;27.070;2022-08-14T01:11:56;25.0;;;3.3;;
63690;SDS011;49837;57.280;27.070;2022-08-14T01:12:59;14.8;;;2.3;;
63690;SDS011;49837;57.280;27.070;2022-08-14T01:14:00;20.8;;;2.5;;
63690;SDS011;49837;57.280;27.070;2022-08-14T01:15:03;28.1;;;3.5;;
63690;SDS011;49837;57.280;27.070;2022-08-14T01:16:04;35.5;;;4.1;;
63690;SDS011;49837;57.280;27.070;2022-08-14T01:17:04;37.5;;;3.8;;
63690;SDS011;49837;57.280;27.070;2022-08-14T01:18:05;18.2;;;2.7;;
63690;SDS011;49837;57.280;27.070;2022-08-14T01:19:05;14.3;;;2.3;;
63690;SDS011;49837;57.280;27.070;2022-08-14T01:20:06;10.9;;;2.0;;
63690;SDS011;49837;57.280;27.070;2022-08-14T01:21:09;8.2;;;2.0;;
63690;SDS011;49837;57.280;27.070;2022-08-14T01:22:11;7.7;;;1.8;;
63690;SDS011;49837;57.280;27.070;2022-08-14T01:23:10;9.0;;;1.9;;
63690;SDS011;49837;57.280;27.070;2022-08-14T01:24:14;13.1;;;2.4;;
63690;SDS011;49837;57.280;27.070;2022-08-14T01:25:16;16.2;;;2.3;;
63690;SDS011;49837;57.280;27.070;2022-08-14T01:26:17;10.0;;;2.4;;
63690;SDS011;49837;57.280;27.070;2022-08-14T01:27:21;6.6;;;2.0;;
63690;SDS011;49837;57.280;27.070;2022-08-14T01:28:21;16.5;;;2.1;;
63690;SDS011;49837;57.280;27.070;2022-08-14T01:29:24;10.0;;;1.9;;
63690;SDS011;49837;57.280;27.070;2022-08-14T01:30:26;6.4;;;2.0;;
63690;SDS011;49837;57.280;27.070;2022-08-14T01:31:27;9.5;;;2.4;;
63690;SDS011;49837;57.280;27.070;2022-08-14T01:32:28;14.9;;;3.0;;
63690;SDS011;49837;57.280;27.070;2022-08-14T01:33:28;8.2;;;2.2;;
63690;SDS011;49837;57.280;27.070;2022-08-14T01:34:30;5.7;;;2.2;;
63690;SDS011;49837;57.280;27.070;2022-08-14T01:35:32;9.2;;;1.9;;
63690;SDS011;49837;57.280;27.070;2022-08-14T01:36:35;7.1;;;2.0;;
63690;SDS011;49837;57.280;27.070;2022-08-14T01:37:36;12.1;;;2.6;;
63690;SDS011;49837;57.280;27.070;2022-08-14T01:38:40;11.4;;;2.2;;
63690;SDS011;49837;57.280;27.070;2022-08-14T01:39:44;13.6;;;2.2;;
63690;SDS011;49837;57.280;27.070;2022-08-14T01:40:45;14.0;;;3.2;;
63690;SDS011;49837;57.280;27.070;2022-08-14T01:41:46;12.4;;;2.5;;
63690;SDS011;49837;57.280;27.070;2022-08-14T01:42:46;16.2;;;3.1;;
63690;SDS011;49837;57.280;27.070;2022-08-14T01:43:50;25.3;;;3.1;;
63690;SDS011;49837;57.280;27.070;2022-08-14T01:44:50;18.0;;;2.7;;
63690;SDS011;49837;57.280;27.070;2022-08-14T01:45:50;21.8;;;3.2;;
63690;SDS011;49837;57.280;27.070;2022-08-14T01:46:52;22.5;;;3.3;;
63690;SDS011;49837;57.280;27.070;2022-08-14T01:47:57;15.3;;;2.7;;
63690;SDS011;49837;57.280;27.070;2022-08-14T01:49:00;31.2;;;3.4;;
63690;SDS011;49837;57.280;27.070;2022-08-14T01:50:00;20.5;;;4.0;;
63690;SDS011;49837;57.280;27.070;2022-08-14T01:51:00;32.6;;;3.6;;
63690;SDS011;49837;57.280;27.070;2022-08-14T01:52:01;27.0;;;3.2;;
63690;SDS011;49837;57.280;27.070;2022-08-14T01:53:04;26.5;;;3.3;;
63690;SDS011;49837;57.280;27.070;2022-08-14T01:54:06;18.0;;;3.3;;
63690;SDS011;49837;57.280;27.070;2022-08-14T01:55:10;22.2;;;3.5;;
63690;SDS011;49837;57.280;27.070;2022-08-14T01:56:10;24.9;;;3.1;;
63690;SDS011;49837;57.280;27.070;2022-08-14T01:57:14;33.6;;;3.5;;
63690;SDS011;49837;57.280;27.070;2022-08-14T01:58:15;26.0;;;3.3;;
63690;SDS011;49837;57.280;27.070;2022-08-14T01:59:19;23.7;;;3.3;;
63690;SDS011;49837;57.280;27.070;2022-08-14T02:00:17;26.6;;;3.0;;
63690;SDS011;49837;57.280;27.070;2022-08-14T02:01:18;24.9;;;2.7;;
63690;SDS011;49837;57.280;27.070;2022-08-14T02:02:22;25.6;;;3.0;;
63690;SDS011;49837;57.280;27.070;2022-08-14T02:03:23;17.0;;;2.8;;
63690;SDS011;49837;57.280;27.070;2022-08-14T02:04:28;45.2;;;4.1;;
63690;SDS011;49837;57.280;27.070;2022-08-14T02:05:27;42.3;;;4.1;;
63690;SDS011;49837;57.280;27.070;2022-08-14T02:06:28;34.0;;;3.6;;
63690;SDS011;49837;57.280;27.070;2022-08-14T02:07:29;61.0;;;4.9;;
63690;SDS011;49837;57.280;27.070;2022-08-14T02:08:31;68.8;;;5.7;;
63690;SDS011;49837;57.280;27.070;2022-08-14T02:09:32;60.5;;;5.8;;
63690;SDS011;49837;57.280;27.070;2022-08-14T02:10:33;54.7;;;6.0;;
63690;SDS011;49837;57.280;27.070;2022-08-14T02:11:37;64.7;;;5.1;;
63690;SDS011;49837;57.280;27.070;2022-08-14T02:12:37;65.0;;;5.5;;
63690;SDS011;49837;57.280;27.070;2022-08-14T02:13:38;57.0;;;5.7;;
63690;SDS011;49837;57.280;27.070;2022-08-14T02:14:39;64.0;;;5.9;;
63690;SDS011;49837;57.280;27.070;2022-08-14T02:15:40;64.9;;;5.9;;
63690;SDS011;49837;57.280;27.070;2022-08-14T02:16:42;37.1;;;4.3;;
63690;SDS011;49837;57.280;27.070;2022-08-14T02:17:41;41.5;;;5.0;;
63690;SDS011;49837;57.280;27.070;2022-08-14T02:18:42;41.0;;;4.3;;
63690;SDS011;49837;57.280;27.070;2022-08-14T02:19:42;47.7;;;4.5;;
63690;SDS011;49837;57.280;27.070;2022-08-14T02:20:43;33.4;;;3.7;;
63690;SDS011;49837;57.280;27.070;2022-08-14T02:21:44;30.0;;;3.6;;
63690;SDS011;49837;57.280;27.070;2022-08-14T02:22:46;27.4;;;3.5;;
63690;SDS011;49837;57.280;27.070;2022-08-14T02:23:49;15.8;;;3.6;;
63690;SDS011;49837;57.280;27.070;2022-08-14T02:24:49;12.4;;;3.1;;
63690;SDS011;49837;57.280;27.070;2022-08-14T02:25:50;19.3;;;3.3;;
63690;SDS011;49837;57.280;27.070;2022-08-14T02:26:50;25.0;;;3.4;;
63690;SDS011;49837;57.280;27.070;2022-08-14T02:27:53;21.0;;;4.1;;
63690;SDS011;49837;57.280;27.070;2022-08-14T02:29:16;18.0;;;3.5;;
63690;SDS011;49837;57.280;27.070;2022-08-14T02:29:59;27.3;;;4.3;;
63690;SDS011;49837;57.280;27.070;2022-08-14T02:30:59;18.8;;;3.9;;
63690;SDS011;49837;57.280;27.070;2022-08-14T02:31:59;16.1;;;4.4;;
63690;SDS011;49837;57.280;27.070;2022-08-14T02:33:00;22.9;;;4.3;;
63690;SDS011;49837;57.280;27.070;2022-08-14T02:34:20;26.5;;;4.2;;
63690;SDS011;49837;57.280;27.070;2022-08-14T02:35:04;26.9;;;3.9;;
63690;SDS011;49837;57.280;27.070;2022-08-14T02:36:05;23.7;;;4.9;;
63690;SDS011;49837;57.280;27.070;2022-08-14T02:37:08;43.7;;;4.6;;
63690;SDS011;49837;57.280;27.070;2022-08-14T02:38:11;39.9;;;4.5;;
63690;SDS011;49837;57.280;27.070;2022-08-14T02:39:14;40.6;;;3.9;;
63690;SDS011;49837;57.280;27.070;2022-08-14T02:40:16;42.5;;;4.1;;
63690;SDS011;49837;57.280;27.070;2022-08-14T02:41:16;47.9;;;4.7;;
63690;SDS011;49837;57.280;27.070;2022-08-14T02:42:17;64.0;;;5.5;;
63690;SDS011;49837;57.280;27.070;2022-08-14T02:43:18;51.9;;;4.9;;
63690;SDS011;49837;57.280;27.070;2022-08-14T02:44:18;64.3;;;6.2;;
63690;SDS011;49837;57.280;27.070;2022-08-14T02:45:20;57.6;;;4.9;;
63690;SDS011;49837;57.280;27.070;2022-08-14T02:46:21;98.9;;;7.3;;
63690;SDS011;49837;57.280;27.070;2022-08-14T02:47:23;108.7;;;8.7;;
63690;SDS011;49837;57.280;27.070;2022-08-14T02:48:23;156.9;;;10.4;;
63690;SDS011;49837;57.280;27.070;2022-08-14T02:49:25;138.1;;;10.8;;
63690;SDS011;49837;57.280;27.070;2022-08-14T02:50:29;164.3;;;12.6;;
63690;SDS011;49837;57.280;27.070;2022-08-14T02:51:30;172.3;;;12.2;;
63690;SDS011;49837;57.280;27.070;2022-08-14T02:52:30;153.5;;;11.4;;
63690;SDS011;49837;57.280;27.070;2022-08-14T02:53:33;142.7;;;11.6;;
63690;SDS011;49837;57.280;27.070;2022-08-14T02:54:33;83.0;;;7.7;;
63690;SDS011;49837;57.280;27.070;2022-08-14T02:55:34;105.9;;;7.1;;
63690;SDS011;49837;57.280;27.070;2022-08-14T02:56:37;103.5;;;7.8;;
63690;SDS011;49837;57.280;27.070;2022-08-14T02:57:39;61.0;;;6.8;;
63690;SDS011;49837;57.280;27.070;2022-08-14T02:58:42;44.1;;;4.7;;
63690;SDS011;49837;57.280;27.070;2022-08-14T02:59:43;33.8;;;4.7;;
63690;SDS011;49837;57.280;27.070;2022-08-14T03:00:44;35.3;;;3.9;;
63690;SDS011;49837;57.280;27.070;2022-08-14T03:01:44;26.7;;;3.1;;
63690;SDS011;49837;57.280;27.070;2022-08-14T03:02:45;24.9;;;3.2;;
63690;SDS011;49837;57.280;27.070;2022-08-14T03:03:50;30.1;;;3.2;;
63690;SDS011;49837;57.280;27.070;2022-08-14T03:04:50;18.1;;;2.7;;
63690;SDS011;49837;57.280;27.070;2022-08-14T03:05:51;13.6;;;2.3;;
63690;SDS011;49837;57.280;27.070;2022-08-14T03:06:51;10.3;;;2.8;;
63690;SDS011;49837;57.280;27.070;2022-08-14T03:08:01;16.0;;;3.1;;
63690;SDS011;49837;57.280;27.070;2022-08-14T03:08:58;17.3;;;2.4;;
63690;SDS011;49837;57.280;27.070;2022-08-14T03:09:59;12.8;;;2.6;;
63690;SDS011;49837;57.280;27.070;2022-08-14T03:11:02;36.3;;;4.3;;
63690;SDS011;49837;57.280;27.070;2022-08-14T03:12:04;30.7;;;3.6;;
63690;SDS011;49837;57.280;27.070;2022-08-14T03:13:04;20.7;;;3.2;;
63690;SDS011;49837;57.280;27.070;2022-08-14T03:14:04;23.0;;;3.0;;
63690;SDS011;49837;57.280;27.070;2022-08-14T03:15:05;17.7;;;2.7;;
63690;SDS011;49837;57.280;27.070;2022-08-14T03:16:06;22.8;;;3.5;;
63690;SDS011;49837;57.280;27.070;2022-08-14T03:17:07;18.5;;;3.0;;
63690;SDS011;49837;57.280;27.070;2022-08-14T03:18:11;15.5;;;2.4;;
63690;SDS011;49837;57.280;27.070;2022-08-14T03:19:09;24.3;;;3.0;;
63690;SDS011;49837;57.280;27.070;2022-08-14T03:20:10;26.5;;;3.4;;
63690;SDS011;49837;57.280;27.070;2022-08-14T03:21:11;38.9;;;4.1;;
63690;SDS011;49837;57.280;27.070;2022-08-14T03:22:11;36.2;;;4.1;;
63690;SDS011;49837;57.280;27.070;2022-08-14T03:23:13;44.8;;;5.3;;
63690;SDS011;49837;57.280;27.070;2022-08-14T03:24:14;51.0;;;4.6;;
63690;SDS011;49837;57.280;27.070;2022-08-14T03:25:17;46.1;;;3.8;;
63690;SDS011;49837;57.280;27.070;2022-08-14T03:26:18;44.2;;;3.9;;
63690;SDS011;49837;57.280;27.070;2022-08-14T03:27:21;47.5;;;4.6;;
63690;SDS011;49837;57.280;27.070;2022-08-14T03:28:22;38.5;;;4.6;;
63690;SDS011;49837;57.280;27.070;2022-08-14T03:29:24;48.2;;;5.0;;
63690;SDS011;49837;57.280;27.070;2022-08-14T03:30:25;42.0;;;4.1;;
63690;SDS011;49837;57.280;27.070;2022-08-14T03:31:25;50.7;;;5.3;;
63690;SDS011;49837;57.280;27.070;2022-08-14T03:32:26;34.0;;;4.3;;
63690;SDS011;49837;57.280;27.070;2022-08-14T03:33:27;40.7;;;5.6;;
63690;SDS011;49837;57.280;27.070;2022-08-14T03:34:29;31.8;;;6.2;;
63690;SDS011;49837;57.280;27.070;2022-08-14T03:35:31;54.8;;;7.9;;
63690;SDS011;49837;57.280;27.070;2022-08-14T03:36:36;32.9;;;7.2;;
63690;SDS011;49837;57.280;27.070;2022-08-14T03:37:39;57.4;;;6.5;;
63690;SDS011;49837;57.280;27.070;2022-08-14T03:38:41;51.3;;;7.8;;
63690;SDS011;49837;57.280;27.070;2022-08-14T03:39:45;48.8;;;7.9;;
63690;SDS011;49837;57.280;27.070;2022-08-14T03:40:46;70.8;;;8.3;;
63690;SDS011;49837;57.280;27.070;2022-08-14T03:41:49;102.1;;;9.8;;
63690;SDS011;49837;57.280;27.070;2022-08-14T03:42:51;96.1;;;10.0;;
63690;SDS011;49837;57.280;27.070;2022-08-14T03:43:55;73.2;;;9.4;;
63690;SDS011;49837;57.280;27.070;2022-08-14T03:44:53;90.8;;;10.9;;
63690;SDS011;49837;57.280;27.070;2022-08-14T03:45:55;68.0;;;7.5;;
63690;SDS011;49837;57.280;27.070;2022-08-14T03:46:56;67.9;;;7.9;;
63690;SDS011;49837;57.280;27.070;2022-08-14T03:47:56;73.4;;;8.3;;
63690;SDS011;49837;57.280;27.070;2022-08-14T03:48:58;84.0;;;8.7;;
63690;SDS011;49837;57.280;27.070;2022-08-14T03:49:58;98.8;;;8.3;;
63690;SDS011;49837;57.280;27.070;2022-08-14T03:50:59;82.4;;;8.4;;
63690;SDS011;49837;57.280;27.070;2022-08-14T03:51:59;81.0;;;9.6;;
63690;SDS011;49837;57.280;27.070;2022-08-14T03:53:00;74.3;;;7.2;;
63690;SDS011;49837;57.280;27.070;2022-08-14T03:54:02;40.1;;;5.6;;
63690;SDS011;49837;57.280;27.070;2022-08-14T03:55:04;40.3;;;5.1;;
63690;SDS011;49837;57.280;27.070;2022-08-14T03:56:04;34.5;;;4.7;;
63690;SDS011;49837;57.280;27.070;2022-08-14T03:57:04;38.2;;;5.0;;
63690;SDS011;49837;57.280;27.070;2022-08-14T03:58:05;27.1;;;4.5;;
63690;SDS011;49837;57.280;27.070;2022-08-14T03:59:05;39.4;;;4.5;;
63690;SDS011;49837;57.280;27.070;2022-08-14T04:00:09;30.6;;;4.2;;
63690;SDS011;49837;57.280;27.070;2022-08-14T04:01:17;33.4;;;5.0;;
63690;SDS011;49837;57.280;27.070;2022-08-14T04:02:16;47.3;;;5.3;;
63690;SDS011;49837;57.280;27.070;2022-08-14T04:03:18;48.8;;;6.1;;
63690;SDS011;49837;57.280;27.070;2022-08-14T04:04:20;42.6;;;5.5;;
63690;SDS011;49837;57.280;27.070;2022-08-14T04:05:20;57.3;;;6.5;;
63690;SDS011;49837;57.280;27.070;2022-08-14T04:06:21;48.7;;;6.3;;
63690;SDS011;49837;57.280;27.070;2022-08-14T04:07:24;47.6;;;6.7;;
63690;SDS011;49837;57.280;27.070;2022-08-14T04:08:28;49.4;;;5.6;;
63690;SDS011;49837;57.280;27.070;2022-08-14T04:09:29;47.2;;;5.4;;
63690;SDS011;49837;57.280;27.070;2022-08-14T04:10:29;45.5;;;5.3;;
63690;SDS011;49837;57.280;27.070;2022-08-14T04:11:30;48.3;;;5.7;;
63690;SDS011;49837;57.280;27.070;2022-08-14T04:12:30;43.6;;;5.0;;
63690;SDS011;49837;57.280;27.070;2022-08-14T04:13:31;50.4;;;5.8;;
63690;SDS011;49837;57.280;27.070;2022-08-14T04:14:31;29.7;;;3.9;;
63690;SDS011;49837;57.280;27.070;2022-08-14T04:15:33;28.1;;;4.5;;
63690;SDS011;49837;57.280;27.070;2022-08-14T04:16:36;36.0;;;4.5;;
63690;SDS011;49837;57.280;27.070;2022-08-14T04:17:36;31.2;;;4.6;;
63690;SDS011;49837;57.280;27.070;2022-08-14T04:18:37;40.6;;;4.8;;
63690;SDS011;49837;57.280;27.070;2022-08-14T04:19:38;64.6;;;6.2;;
63690;SDS011;49837;57.280;27.070;2022-08-14T04:20:40;63.5;;;5.7;;
63690;SDS011;49837;57.280;27.070;2022-08-14T04:21:41;68.8;;;6.7;;
63690;SDS011;49837;57.280;27.070;2022-08-14T04:22:43;76.1;;;6.6;;
63690;SDS011;49837;57.280;27.070;2022-08-14T04:23:44;78.2;;;8.9;;
63690;SDS011;49837;57.280;27.070;2022-08-14T04:24:47;47.0;;;6.3;;
63690;SDS011;49837;57.280;27.070;2022-08-14T04:25:48;57.2;;;6.2;;
63690;SDS011;49837;57.280;27.070;2022-08-14T04:26:48;49.4;;;6.5;;
63690;SDS011;49837;57.280;27.070;2022-08-14T04:27:49;42.6;;;5.2;;
63690;SDS011;49837;57.280;27.070;2022-08-14T04:28:49;24.5;;;4.3;;
63690;SDS011;49837;57.280;27.070;2022-08-14T04:29:52;24.5;;;4.3;;
63690;SDS011;49837;57.280;27.070;2022-08-14T04:30:52;34.3;;;4.2;;
63690;SDS011;49837;57.280;27.070;2022-08-14T04:31:55;35.3;;;4.7;;
63690;SDS011;49837;57.280;27.070;2022-08-14T04:32:57;31.0;;;4.7;;
63690;SDS011;49837;57.280;27.070;2022-08-14T04:33:59;27.2;;;4.6;;
63690;SDS011;49837;57.280;27.070;2022-08-14T04:35:00;25.5;;;4.5;;
63690;SDS011;49837;57.280;27.070;2022-08-14T04:36:01;32.5;;;4.9;;
63690;SDS011;49837;57.280;27.070;2022-08-14T04:37:01;61.9;;;7.2;;
63690;SDS011;49837;57.280;27.070;2022-08-14T04:38:05;79.3;;;8.5;;
63690;SDS011;49837;57.280;27.070;2022-08-14T04:39:06;29.4;;;5.1;;
63690;SDS011;49837;57.280;27.070;2022-08-14T04:40:06;27.0;;;4.8;;
63690;SDS011;49837;57.280;27.070;2022-08-14T04:41:06;45.6;;;6.6;;
63690;SDS011;49837;57.280;27.070;2022-08-14T04:42:07;45.6;;;6.0;;
63690;SDS011;49837;57.280;27.070;2022-08-14T04:43:10;20.1;;;4.4;;
63690;SDS011;49837;57.280;27.070;2022-08-14T04:44:10;22.1;;;4.5;;
63690;SDS011;49837;57.280;27.070;2022-08-14T04:45:12;23.5;;;4.9;;
63690;SDS011;49837;57.280;27.070;2022-08-14T04:46:15;23.5;;;4.6;;
63690;SDS011;49837;57.280;27.070;2022-08-14T04:47:14;26.3;;;4.6;;
63690;SDS011;49837;57.280;27.070;2022-08-14T04:48:15;20.9;;;4.9;;
63690;SDS011;49837;57.280;27.070;2022-08-14T04:49:17;26.0;;;5.3;;
63690;SDS011;49837;57.280;27.070;2022-08-14T04:50:18;16.6;;;4.8;;
63690;SDS011;49837;57.280;27.070;2022-08-14T04:51:20;18.8;;;4.4;;
63690;SDS011;49837;57.280;27.070;2022-08-14T04:52:20;11.7;;;4.0;;
63690;SDS011;49837;57.280;27.070;2022-08-14T04:53:25;18.9;;;4.4;;
63690;SDS011;49837;57.280;27.070;2022-08-14T04:54:25;13.9;;;4.7;;
63690;SDS011;49837;57.280;27.070;2022-08-14T04:55:23;11.2;;;4.2;;
63690;SDS011;49837;57.280;27.070;2022-08-14T04:56:24;14.9;;;4.4;;
63690;SDS011;49837;57.280;27.070;2022-08-14T04:57:25;16.2;;;4.2;;
63690;SDS011;49837;57.280;27.070;2022-08-14T04:58:26;14.9;;;4.3;;
63690;SDS011;49837;57.280;27.070;2022-08-14T04:59:29;70.4;;;6.5;;
63690;SDS011;49837;57.280;27.070;2022-08-14T05:00:30;52.3;;;6.4;;
63690;SDS011;49837;57.280;27.070;2022-08-14T05:01:30;38.3;;;6.4;;
63690;SDS011;49837;57.280;27.070;2022-08-14T05:02:31;27.8;;;5.0;;
63690;SDS011;49837;57.280;27.070;2022-08-14T05:03:33;32.6;;;5.4;;
63690;SDS011;49837;57.280;27.070;2022-08-14T05:04:33;29.8;;;5.1;;
63690;SDS011;49837;57.280;27.070;2022-08-14T05:05:35;17.4;;;4.7;;
63690;SDS011;49837;57.280;27.070;2022-08-14T05:06:36;9.2;;;4.1;;
63690;SDS011;49837;57.280;27.070;2022-08-14T05:07:36;10.1;;;4.0;;
63690;SDS011;49837;57.280;27.070;2022-08-14T05:08:39;11.1;;;3.8;;
63690;SDS011;49837;57.280;27.070;2022-08-14T05:09:40;7.2;;;3.7;;
63690;SDS011;49837;57.280;27.070;2022-08-14T05:10:45;11.5;;;4.3;;
63690;SDS011;49837;57.280;27.070;2022-08-14T05:11:45;8.1;;;3.8;;
63690;SDS011;49837;57.280;27.070;2022-08-14T05:12:46;9.1;;;3.7;;
63690;SDS011;49837;57.280;27.070;2022-08-14T05:13:48;8.9;;;3.6;;
63690;SDS011;49837;57.280;27.070;2022-08-14T05:14:50;12.5;;;3.5;;
63690;SDS011;49837;57.280;27.070;2022-08-14T05:15:51;9.6;;;3.5;;
63690;SDS011;49837;57.280;27.070;2022-08-14T05:16:51;11.5;;;3.6;;
63690;SDS011;49837;57.280;27.070;2022-08-14T05:17:52;7.8;;;3.1;;
63690;SDS011;49837;57.280;27.070;2022-08-14T05:18:54;10.7;;;3.7;;
63690;SDS011;49837;57.280;27.070;2022-08-14T05:19:56;6.5;;;3.1;;
63690;SDS011;49837;57.280;27.070;2022-08-14T05:20:59;10.2;;;3.1;;
63690;SDS011;49837;57.280;27.070;2022-08-14T05:21:59;5.2;;;3.0;;
63690;SDS011;49837;57.280;27.070;2022-08-14T05:22:59;10.3;;;3.0;;
63690;SDS011;49837;57.280;27.070;2022-08-14T05:24:00;7.2;;;2.6;;
63690;SDS011;49837;57.280;27.070;2022-08-14T05:25:00;6.0;;;2.2;;
63690;SDS011;49837;57.280;27.070;2022-08-14T05:26:01;5.8;;;2.7;;
63690;SDS011;49837;57.280;27.070;2022-08-14T05:27:01;8.6;;;2.8;;
63690;SDS011;49837;57.280;27.070;2022-08-14T05:28:08;5.9;;;2.5;;
63690;SDS011;49837;57.280;27.070;2022-08-14T05:29:02;6.1;;;2.5;;
63690;SDS011;49837;57.280;27.070;2022-08-14T05:30:03;5.8;;;2.3;;
63690;SDS011;49837;57.280;27.070;2022-08-14T05:31:04;3.9;;;2.3;;
63690;SDS011;49837;57.280;27.070;2022-08-14T05:32:04;4.2;;;2.4;;
63690;SDS011;49837;57.280;27.070;2022-08-14T05:33:04;5.1;;;2.2;;
63690;SDS011;49837;57.280;27.070;2022-08-14T05:34:05;5.3;;;2.4;;
63690;SDS011;49837;57.280;27.070;2022-08-14T05:35:05;5.8;;;1.9;;
63690;SDS011;49837;57.280;27.070;2022-08-14T05:36:07;72.7;;;6.8;;
63690;SDS011;49837;57.280;27.070;2022-08-14T05:37:07;23.4;;;4.0;;
63690;SDS011;49837;57.280;27.070;2022-08-14T05:38:08;6.2;;;2.3;;
63690;SDS011;49837;57.280;27.070;2022-08-14T05:39:12;21.3;;;3.4;;
63690;SDS011;49837;57.280;27.070;2022-08-14T05:40:12;14.3;;;2.4;;
63690;SDS011;49837;57.280;27.070;2022-08-14T05:41:14;8.5;;;2.3;;
63690;SDS011;49837;57.280;27.070;2022-08-14T05:42:14;6.5;;;2.1;;
63690;SDS011;49837;57.280;27.070;2022-08-14T05:43:18;16.4;;;2.8;;
63690;SDS011;49837;57.280;27.070;2022-08-14T05:44:18;12.4;;;2.5;;
63690;SDS011;49837;57.280;27.070;2022-08-14T05:45:18;5.9;;;1.9;;
63690;SDS011;49837;57.280;27.070;2022-08-14T05:46:19;8.8;;;2.3;;
63690;SDS011;49837;57.280;27.070;2022-08-14T05:47:19;6.1;;;1.8;;
63690;SDS011;49837;57.280;27.070;2022-08-14T05:48:19;3.3;;;1.7;;
63690;SDS011;49837;57.280;27.070;2022-08-14T05:49:20;5.4;;;1.8;;
63690;SDS011;49837;57.280;27.070;2022-08-14T05:50:20;4.3;;;1.8;;
63690;SDS011;49837;57.280;27.070;2022-08-14T05:51:21;6.7;;;2.0;;
63690;SDS011;49837;57.280;27.070;2022-08-14T05:52:21;5.1;;;1.8;;
63690;SDS011;49837;57.280;27.070;2022-08-14T05:53:25;5.5;;;1.9;;
63690;SDS011;49837;57.280;27.070;2022-08-14T05:54:30;3.6;;;1.8;;
63690;SDS011;49837;57.280;27.070;2022-08-14T05:55:31;3.2;;;1.7;;
63690;SDS011;49837;57.280;27.070;2022-08-14T05:56:33;3.2;;;1.7;;
63690;SDS011;49837;57.280;27.070;2022-08-14T05:57:34;5.4;;;2.0;;
63690;SDS011;49837;57.280;27.070;2022-08-14T05:58:35;6.4;;;1.8;;
63690;SDS011;49837;57.280;27.070;2022-08-14T05:59:37;3.8;;;1.9;;
63690;SDS011;49837;57.280;27.070;2022-08-14T06:00:38;2.5;;;1.6;;
63690;SDS011;49837;57.280;27.070;2022-08-14T06:01:38;3.2;;;1.9;;
63690;SDS011;49837;57.280;27.070;2022-08-14T06:02:38;5.4;;;1.8;;
63690;SDS011;49837;57.280;27.070;2022-08-14T06:03:39;3.6;;;1.9;;
63690;SDS011;49837;57.280;27.070;2022-08-14T06:04:39;2.3;;;1.5;;
63690;SDS011;49837;57.280;27.070;2022-08-14T06:05:40;2.7;;;1.5;;
63690;SDS011;49837;57.280;27.070;2022-08-14T06:06:40;3.5;;;1.6;;
63690;SDS011;49837;57.280;27.070;2022-08-14T06:07:41;2.4;;;1.6;;
63690;SDS011;49837;57.280;27.070;2022-08-14T06:08:41;2.4;;;1.8;;
63690;SDS011;49837;57.280;27.070;2022-08-14T06:09:41;4.6;;;1.6;;
63690;SDS011;49837;57.280;27.070;2022-08-14T06:10:43;2.0;;;1.5;;